Time;durP1;ratioP1;P1;durP2;ratioP2;P2;SDS_P1;SDS_P2;PMS_P1;PMS_P2;Temp;Humidity;BMP_temperature;BMP_pressure;BME280_temperature;BME280_humidity;BME280_pressure;Samples;Min_cycle;Max_cycle;Signal;HPM_P1;HPM_P2
2022/03/05 00:00:33;;;;;;;17.70;5.97;;;2.70;99.90;;;;;;5008993;28;20029;-60
2022/03/05 00:02:59;;;;;;;20.92;7.15;;;2.70;99.90;;;;;;5011311;28;20095;-61
2022/03/05 00:05:25;;;;;;;21.15;6.57;;;2.70;99.90;;;;;;5010731;28;20034;-60
2022/03/05 00:07:51;;;;;;;19.05;6.75;;;2.60;99.90;;;;;;5011404;28;20041;-61
2022/03/05 00:10:19;;;;;;;19.25;5.78;;;2.60;99.90;;;;;;5008972;28;20519;-61
2022/03/05 00:12:45;;;;;;;16.60;6.53;;;2.60;99.90;;;;;;5011218;28;20046;-59
2022/03/05 00:15:11;;;;;;;18.77;6.90;;;2.50;99.90;;;;;;5006147;28;20026;-60
2022/03/05 00:17:36;;;;;;;18.02;5.82;;;2.40;99.90;;;;;;5011085;28;20478;-59
2022/03/05 00:20:03;;;;;;;13.18;6.05;;;2.50;99.90;;;;;;5010162;28;20030;-60
2022/03/05 00:22:29;;;;;;;19.10;6.68;;;2.40;99.90;;;;;;5010729;28;20060;-59
2022/03/05 00:24:54;;;;;;;21.20;7.32;;;2.40;99.90;;;;;;5010851;28;20606;-59
2022/03/05 00:27:20;;;;;;;19.80;7.18;;;2.40;99.90;;;;;;5010467;28;20058;-60
2022/03/05 00:29:46;;;;;;;16.92;6.03;;;2.40;99.90;;;;;;5010103;28;20026;-60
2022/03/05 00:32:11;;;;;;;18.38;6.88;;;2.30;99.90;;;;;;5010367;28;20157;-59
2022/03/05 00:34:37;;;;;;;19.00;6.57;;;2.30;99.90;;;;;;5009145;28;20042;-59
2022/03/05 00:37:05;;;;;;;23.92;7.40;;;2.20;99.90;;;;;;5010312;28;20088;-60
2022/03/05 00:39:31;;;;;;;17.48;6.45;;;2.20;99.90;;;;;;5009830;28;20084;-61
2022/03/05 00:41:56;;;;;;;16.77;6.40;;;2.20;99.90;;;;;;5012178;28;20442;-60
2022/03/05 00:44:22;;;;;;;18.73;6.43;;;2.20;99.90;;;;;;5010044;28;20526;-59
2022/03/05 00:46:48;;;;;;;19.55;6.55;;;2.10;99.90;;;;;;5010336;28;20034;-60
2022/03/05 00:49:13;;;;;;;19.00;7.05;;;2.10;99.90;;;;;;5010036;28;20114;-61
2022/03/05 00:51:39;;;;;;;21.95;7.43;;;2.00;99.90;;;;;;5010156;28;20429;-60
2022/03/05 00:54:04;;;;;;;22.40;6.95;;;2.10;99.90;;;;;;5009744;28;20041;-59
2022/03/05 00:56:30;;;;;;;21.30;7.15;;;2.00;99.90;;;;;;5010060;28;20041;-59
2022/03/05 00:58:55;;;;;;;20.95;7.10;;;1.90;99.90;;;;;;5010458;28;20069;-59
2022/03/05 01:01:21;;;;;;;21.40;6.28;;;2.00;99.90;;;;;;5009153;28;20661;-60
2022/03/05 01:03:47;;;;;;;20.17;7.13;;;1.90;99.90;;;;;;5010188;28;20041;-59
2022/03/05 01:06:12;;;;;;;21.38;7.15;;;1.90;99.90;;;;;;5009633;28;20042;-60
2022/03/05 01:08:38;;;;;;;18.85;7.50;;;1.90;99.90;;;;;;5010003;28;20445;-60
2022/03/05 01:11:04;;;;;;;15.15;6.00;;;1.80;99.90;;;;;;5009094;28;20044;-60
2022/03/05 01:13:30;;;;;;;15.85;6.38;;;1.80;99.90;;;;;;5008477;28;20429;-60
2022/03/05 01:15:55;;;;;;;20.65;7.63;;;1.80;99.90;;;;;;5009803;28;20030;-60
2022/03/05 01:18:21;;;;;;;21.02;6.05;;;1.80;99.90;;;;;;5009495;28;20034;-61
2022/03/05 01:20:47;;;;;;;19.10;7.55;;;1.70;99.90;;;;;;5018272;23;20053;-66
2022/03/05 01:23:12;;;;;;;16.40;6.68;;;1.70;99.90;;;;;;4989841;28;20669;-69
2022/03/05 01:25:38;;;;;;;22.30;7.63;;;1.60;99.90;;;;;;4989812;28;20037;-68
2022/03/05 01:28:04;;;;;;;20.90;5.95;;;1.60;99.90;;;;;;4988857;28;20026;-68
2022/03/05 01:30:29;;;;;;;19.65;7.72;;;1.60;99.90;;;;;;4989149;28;20038;-67
2022/03/05 01:32:55;;;;;;;16.95;7.57;;;1.60;99.90;;;;;;4988793;28;20042;-68
2022/03/05 01:35:20;;;;;;;22.23;7.88;;;1.50;99.90;;;;;;4989961;28;20092;-68
2022/03/05 01:37:46;;;;;;;17.58;6.47;;;1.50;99.90;;;;;;4989650;28;20038;-69
2022/03/05 01:40:12;;;;;;;22.33;7.78;;;1.50;99.90;;;;;;4989550;28;20030;-68
2022/03/05 01:42:37;;;;;;;16.25;6.05;;;1.40;99.90;;;;;;4992299;28;20059;-68
2022/03/05 01:47:32;;;;;;;23.95;8.27;;;1.50;99.90;;;;;;5050603;22;20065;-64
2022/03/05 01:49:57;;;;;;;20.67;7.45;;;1.40;99.90;;;;;;5022244;28;20060;-64
2022/03/05 01:52:23;;;;;;;22.35;8.07;;;1.40;99.90;;;;;;5028856;28;20072;-65
2022/03/05 01:54:49;;;;;;;16.30;6.55;;;1.40;99.90;;;;;;5030168;28;20033;-64
2022/03/05 01:57:14;;;;;;;19.52;6.18;;;1.30;99.90;;;;;;5023455;28;20176;-63
2022/03/05 01:59:40;;;;;;;20.58;6.60;;;1.30;99.90;;;;;;5024547;28;20041;-64
2022/03/05 02:02:06;;;;;;;17.40;6.18;;;1.20;99.90;;;;;;5024076;28;20042;-65
2022/03/05 02:04:31;;;;;;;20.73;6.38;;;1.20;99.90;;;;;;5022088;28;20033;-64
2022/03/05 02:06:57;;;;;;;21.95;6.82;;;1.10;99.90;;;;;;5026759;28;20044;-64
2022/03/05 02:09:23;;;;;;;16.60;6.55;;;1.20;99.90;;;;;;5022672;28;20029;-64
2022/03/05 02:11:48;;;;;;;21.15;7.70;;;1.20;99.90;;;;;;5022347;28;20198;-64
2022/03/05 02:14:20;;;;;;;16.70;7.35;;;1.20;99.90;;;;;;5023366;28;20037;-64
2022/03/05 02:16:46;;;;;;;16.15;6.85;;;1.20;99.90;;;;;;5022128;28;20472;-64
2022/03/05 02:19:12;;;;;;;20.20;7.38;;;1.20;99.90;;;;;;5022940;28;20034;-65
2022/03/05 02:21:38;;;;;;;17.73;6.45;;;1.10;99.90;;;;;;5024452;28;20088;-64
2022/03/05 02:24:04;;;;;;;16.95;5.82;;;1.20;99.90;;;;;;5024315;28;20029;-65
2022/03/05 02:26:29;;;;;;;20.38;7.90;;;1.20;99.90;;;;;;5021642;28;20037;-64
2022/03/05 02:28:55;;;;;;;20.73;6.97;;;1.20;99.90;;;;;;5023392;28;20037;-64
2022/03/05 02:31:22;;;;;;;18.20;6.68;;;1.10;99.90;;;;;;5021978;28;20034;-64
2022/03/05 02:33:52;;;;;;;20.33;7.05;;;1.10;99.90;;;;;;5024075;28;20057;-65
2022/03/05 02:36:18;;;;;;;17.73;6.68;;;1.10;99.90;;;;;;5024666;28;20494;-63
2022/03/05 02:38:44;;;;;;;18.13;6.68;;;1.10;99.90;;;;;;5021586;28;20049;-64
2022/03/05 02:41:09;;;;;;;21.25;7.13;;;1.00;99.90;;;;;;5023177;28;20033;-65
2022/03/05 02:43:35;;;;;;;23.42;7.65;;;1.00;99.90;;;;;;5023501;28;20044;-65
2022/03/05 02:46:00;;;;;;;20.33;7.15;;;0.90;99.90;;;;;;5023439;28;20041;-65
2022/03/05 02:48:26;;;;;;;21.80;7.20;;;0.90;99.90;;;;;;5021498;28;20046;-64
2022/03/05 02:50:52;;;;;;;26.02;7.90;;;0.90;99.90;;;;;;5022554;28;20124;-64
2022/03/05 02:53:18;;;;;;;21.38;6.38;;;0.90;99.90;;;;;;5021921;28;20052;-64
2022/03/05 02:55:44;;;;;;;18.50;7.32;;;0.80;99.90;;;;;;5021574;28;20022;-64
2022/03/05 02:58:10;;;;;;;19.45;7.78;;;0.80;99.90;;;;;;5022065;28;20033;-64
2022/03/05 03:00:36;;;;;;;24.83;6.95;;;0.70;99.90;;;;;;5023240;28;20030;-64
2022/03/05 03:03:02;;;;;;;18.75;7.60;;;0.70;99.90;;;;;;5023509;28;20033;-64
2022/03/05 03:05:27;;;;;;;21.15;7.55;;;0.70;99.90;;;;;;5021842;28;20022;-65
2022/03/05 03:07:53;;;;;;;19.38;6.30;;;0.60;99.90;;;;;;5023024;28;20048;-63
2022/03/05 03:10:19;;;;;;;17.23;7.15;;;0.50;99.90;;;;;;5021345;28;20045;-65
2022/03/05 03:12:45;;;;;;;18.58;7.03;;;0.50;99.90;;;;;;5024356;28;20087;-64
2022/03/05 03:15:12;;;;;;;19.65;7.53;;;0.40;99.90;;;;;;5021920;28;20034;-63
2022/03/05 03:18:04;;;;;;;19.55;6.40;;;0.40;99.90;;;;;;5020728;28;20168;-64
2022/03/05 03:20:29;;;;;;;19.02;6.93;;;0.30;99.90;;;;;;5017803;28;20041;-64
2022/03/05 03:22:55;;;;;;;19.77;6.90;;;0.30;99.90;;;;;;5023139;28;20038;-64
2022/03/05 03:25:21;;;;;;;23.15;7.32;;;0.20;99.90;;;;;;5020487;28;20532;-64
2022/03/05 03:27:47;;;;;;;31.35;9.02;;;0.20;99.90;;;;;;5021646;28;20034;-64
2022/03/05 03:30:14;;;;;;;18.33;7.18;;;0.20;99.90;;;;;;5021404;28;20486;-64
2022/03/05 03:32:40;;;;;;;22.58;6.97;;;0.20;99.90;;;;;;5020420;28;20096;-64
2022/03/05 03:35:07;;;;;;;20.33;7.22;;;0.20;99.90;;;;;;5022294;28;20036;-65
2022/03/05 03:37:34;;;;;;;22.35;7.40;;;0.20;99.90;;;;;;5019260;28;20102;-64
2022/03/05 03:40:00;;;;;;;22.30;8.05;;;0.20;99.90;;;;;;5023080;28;20036;-63
2022/03/05 03:42:27;;;;;;;23.52;7.60;;;0.20;99.90;;;;;;5023274;28;20095;-64
2022/03/05 03:44:53;;;;;;;20.98;7.63;;;0.20;99.90;;;;;;5020439;28;20095;-64
2022/03/05 03:47:20;;;;;;;22.15;6.97;;;0.20;99.90;;;;;;5024011;28;20045;-64
2022/03/05 03:49:46;;;;;;;15.27;6.28;;;0.30;99.90;;;;;;5021324;28;20571;-64
2022/03/05 03:52:13;;;;;;;20.95;6.97;;;0.20;99.90;;;;;;5019754;28;20042;-65
2022/03/05 03:54:43;;;;;;;20.48;7.78;;;0.20;99.90;;;;;;5022050;28;20040;-64
2022/03/05 03:57:09;;;;;;;21.23;7.40;;;0.10;99.90;;;;;;5019862;28;20060;-64
2022/03/05 03:59:34;;;;;;;18.38;7.20;;;0.10;99.90;;;;;;5022676;28;20053;-64
2022/03/05 04:02:02;;;;;;;19.20;8.05;;;0.10;99.90;;;;;;5021727;28;20036;-64
2022/03/05 04:04:28;;;;;;;20.42;8.30;;;0.10;99.90;;;;;;5023632;28;20022;-65
2022/03/05 04:09:38;;;;;;;23.20;7.97;;;0.10;99.90;;;;;;5021668;28;20168;-64
2022/03/05 04:12:04;;;;;;;19.88;7.35;;;0.10;99.90;;;;;;5023672;28;20292;-65
2022/03/05 04:14:29;;;;;;;18.90;6.32;;;0.10;99.90;;;;;;5023307;28;20482;-65
2022/03/05 04:16:55;;;;;;;18.98;7.55;;;0.00;99.90;;;;;;5024086;28;20037;-64
2022/03/05 04:19:21;;;;;;;17.40;6.85;;;0.10;99.90;;;;;;5021442;28;20074;-64
2022/03/05 04:21:46;;;;;;;23.90;8.27;;;0.00;99.90;;;;;;5022010;28;20397;-64
2022/03/05 04:24:12;;;;;;;26.45;8.30;;;-0.10;99.90;;;;;;5021310;28;20030;-64
2022/03/05 04:26:38;;;;;;;21.63;7.40;;;0.00;99.90;;;;;;5021003;28;20109;-64
2022/03/05 04:29:04;;;;;;;23.48;8.02;;;0.00;99.90;;;;;;5022196;28;20030;-64
2022/03/05 04:31:30;;;;;;;18.38;6.32;;;-0.10;99.90;;;;;;5018870;28;20084;-64
2022/03/05 04:33:56;;;;;;;23.45;7.75;;;-0.10;99.90;;;;;;5021150;28;20038;-64
2022/03/05 04:36:21;;;;;;;22.48;7.45;;;-0.10;99.90;;;;;;5022398;28;20034;-64
2022/03/05 04:38:47;;;;;;;26.67;8.73;;;-0.10;99.90;;;;;;5023744;28;20029;-65
2022/03/05 04:41:13;;;;;;;21.83;7.38;;;-0.10;99.90;;;;;;5019683;28;20049;-64
2022/03/05 04:43:38;;;;;;;21.60;8.30;;;-0.20;99.90;;;;;;5020150;28;20034;-64
2022/03/05 04:46:04;;;;;;;25.05;8.20;;;-0.20;99.90;;;;;;5020392;28;20037;-65
2022/03/05 04:48:29;;;;;;;21.42;7.35;;;-0.20;99.90;;;;;;5018603;28;20120;-64
2022/03/05 04:50:55;;;;;;;25.92;8.75;;;-0.20;99.90;;;;;;5022806;28;20026;-64
2022/03/05 04:53:21;;;;;;;25.45;9.23;;;-0.10;99.90;;;;;;5028817;28;20051;-64
2022/03/05 04:55:47;;;;;;;24.65;7.65;;;-0.10;99.90;;;;;;5024310;28;20045;-64
2022/03/05 04:58:13;;;;;;;22.08;7.35;;;-0.20;99.90;;;;;;5023523;28;20065;-63
2022/03/05 05:00:39;;;;;;;22.27;8.13;;;-0.30;99.90;;;;;;5019879;28;20064;-64
2022/03/05 05:03:04;;;;;;;25.75;7.97;;;-0.30;99.90;;;;;;5018945;28;20030;-64
2022/03/05 05:05:30;;;;;;;24.92;9.35;;;-0.30;99.90;;;;;;5021372;28;20110;-64
2022/03/05 05:07:55;;;;;;;22.40;8.23;;;-0.30;99.90;;;;;;5018362;28;20026;-64
2022/03/05 05:10:21;;;;;;;26.55;8.02;;;-0.30;99.90;;;;;;5020713;28;20561;-64
2022/03/05 05:12:47;;;;;;;24.10;7.90;;;-0.30;99.90;;;;;;5019266;28;20046;-64
2022/03/05 05:15:12;;;;;;;26.33;9.05;;;-0.30;99.90;;;;;;5019235;28;20085;-65
2022/03/05 05:17:38;;;;;;;23.15;8.38;;;-0.30;99.90;;;;;;5020008;28;20072;-64
2022/03/05 05:20:05;;;;;;;23.08;7.55;;;-0.40;99.90;;;;;;5018138;28;20045;-64
2022/03/05 05:22:32;;;;;;;27.20;8.73;;;-0.40;99.90;;;;;;5021077;28;20037;-64
2022/03/05 05:24:59;;;;;;;20.92;7.85;;;-0.40;99.90;;;;;;5018147;28;20030;-64
2022/03/05 05:27:24;;;;;;;28.58;10.02;;;-0.30;99.90;;;;;;5020997;28;20039;-64
2022/03/05 05:29:50;;;;;;;27.95;8.50;;;-0.20;99.90;;;;;;5018699;28;20291;-63
2022/03/05 05:32:16;;;;;;;27.30;8.60;;;-0.30;99.90;;;;;;5020733;28;20053;-65
2022/03/05 05:34:42;;;;;;;24.50;9.48;;;-0.30;99.90;;;;;;5018992;28;20072;-64
2022/03/05 05:37:08;;;;;;;27.83;10.15;;;-0.30;99.90;;;;;;5018495;28;20080;-64
2022/03/05 05:39:33;;;;;;;22.85;8.57;;;-0.30;99.90;;;;;;5019922;28;20029;-63
2022/03/05 05:41:59;;;;;;;25.77;8.65;;;-0.20;99.90;;;;;;5025608;28;20507;-63
2022/03/05 05:44:25;;;;;;;27.55;9.15;;;-0.30;99.90;;;;;;5020977;28;20088;-64
2022/03/05 05:46:50;;;;;;;24.92;8.57;;;-0.30;99.90;;;;;;5017192;28;20137;-64
2022/03/05 05:49:16;;;;;;;24.65;8.52;;;-0.30;99.90;;;;;;5022829;28;20042;-64
2022/03/05 05:51:41;;;;;;;25.25;8.02;;;-0.30;99.90;;;;;;5018254;28;20030;-63
2022/03/05 05:54:08;;;;;;;32.08;10.70;;;-0.30;99.90;;;;;;5018327;28;20034;-64
2022/03/05 05:56:33;;;;;;;30.20;8.88;;;-0.30;99.90;;;;;;5019321;28;20503;-64
2022/03/05 05:58:59;;;;;;;28.77;10.02;;;-0.30;99.90;;;;;;5021084;28;20034;-64
2022/03/05 06:01:25;;;;;;;24.95;7.93;;;-0.30;99.90;;;;;;5020272;28;20038;-64
2022/03/05 06:03:52;;;;;;;25.00;8.95;;;-0.30;99.90;;;;;;5020980;28;20409;-64
2022/03/05 06:06:18;;;;;;;23.90;9.55;;;-0.40;99.90;;;;;;5017367;28;20668;-64
2022/03/05 06:08:43;;;;;;;33.20;9.82;;;-0.30;99.90;;;;;;5022607;28;20045;-64
2022/03/05 06:11:10;;;;;;;28.38;8.70;;;-0.30;99.90;;;;;;5018466;28;20486;-65
2022/03/05 06:13:36;;;;;;;28.08;8.32;;;-0.30;99.90;;;;;;5019040;28;20037;-64
2022/03/05 06:16:01;;;;;;;31.67;8.73;;;-0.40;99.90;;;;;;5019286;28;20030;-65
2022/03/05 06:18:27;;;;;;;30.65;9.32;;;-0.40;99.90;;;;;;5017760;28;20514;-64
2022/03/05 06:20:53;;;;;;;33.13;10.30;;;-0.40;99.90;;;;;;5020297;28;20108;-63
2022/03/05 06:23:18;;;;;;;25.83;9.68;;;-0.30;99.90;;;;;;5016607;28;20044;-63
2022/03/05 06:25:44;;;;;;;31.67;10.45;;;-0.30;99.90;;;;;;5022686;28;20041;-64
2022/03/05 06:28:10;;;;;;;33.20;9.85;;;-0.30;99.90;;;;;;5018078;28;20037;-64
2022/03/05 06:30:36;;;;;;;35.00;10.32;;;-0.30;99.90;;;;;;5018162;28;20022;-64
2022/03/05 06:33:01;;;;;;;35.22;11.27;;;-0.30;99.90;;;;;;5018721;28;20041;-67
2022/03/05 06:35:27;;;;;;;30.13;9.82;;;-0.30;99.90;;;;;;5020273;28;20084;-64
2022/03/05 06:37:52;;;;;;;25.00;9.25;;;-0.30;99.90;;;;;;5019746;28;20038;-64
2022/03/05 06:40:18;;;;;;;27.42;10.13;;;-0.30;99.90;;;;;;5016888;28;20030;-65
2022/03/05 06:42:45;;;;;;;28.95;10.75;;;-0.30;99.90;;;;;;5028065;28;20126;-63
2022/03/05 06:45:11;;;;;;;33.88;10.85;;;-0.30;99.90;;;;;;5025286;28;20030;-63
2022/03/05 06:47:40;;;;;;;32.85;10.60;;;-0.30;99.90;;;;;;5022825;28;20065;-64
2022/03/05 06:50:08;;;;;;;34.55;10.50;;;-0.30;99.90;;;;;;5021664;28;20034;-64
2022/03/05 06:52:33;;;;;;;31.83;10.60;;;-0.20;99.90;;;;;;5022264;28;20070;-64
2022/03/05 06:54:59;;;;;;;26.15;8.82;;;-0.20;99.90;;;;;;5024139;28;20034;-64
2022/03/05 06:57:26;;;;;;;28.00;9.57;;;-0.20;99.90;;;;;;5023038;28;20113;-64
2022/03/05 06:59:52;;;;;;;28.98;9.57;;;-0.10;99.90;;;;;;5020275;28;20116;-63
2022/03/05 07:02:18;;;;;;;27.70;9.45;;;-0.10;99.90;;;;;;5019975;28;20054;-63
2022/03/05 07:04:44;;;;;;;28.90;9.40;;;-0.10;99.90;;;;;;5020925;28;20061;-63
2022/03/05 07:07:09;;;;;;;33.63;10.95;;;-0.10;99.90;;;;;;5021938;28;20030;-64
2022/03/05 07:09:35;;;;;;;30.00;9.45;;;0.00;99.90;;;;;;5019359;28;20026;-64
2022/03/05 07:12:00;;;;;;;34.35;9.60;;;0.00;99.90;;;;;;5016451;28;20034;-64
2022/03/05 07:14:26;;;;;;;34.97;10.75;;;0.10;99.90;;;;;;5015726;28;20046;-65
2022/03/05 07:16:53;;;;;;;30.63;9.55;;;0.10;99.90;;;;;;5015651;28;20037;-64
2022/03/05 07:19:18;;;;;;;30.17;9.70;;;0.10;99.90;;;;;;5016048;28;20033;-64
2022/03/05 07:21:44;;;;;;;33.80;10.30;;;0.10;99.90;;;;;;5016601;28;20052;-64
2022/03/05 07:24:09;;;;;;;28.17;9.90;;;0.10;99.90;;;;;;5020884;28;20042;-65
2022/03/05 07:26:36;;;;;;;32.58;10.10;;;0.10;99.90;;;;;;5019757;28;20072;-64
2022/03/05 07:29:02;;;;;;;30.55;9.35;;;0.20;99.90;;;;;;5016734;28;20026;-65
2022/03/05 07:31:28;;;;;;;28.90;9.07;;;0.30;99.90;;;;;;5021363;28;20034;-64
2022/03/05 07:33:53;;;;;;;31.67;10.05;;;0.50;99.90;;;;;;5022867;28;20041;-64
2022/03/05 07:36:22;;;;;;;29.35;10.00;;;0.60;99.90;;;;;;5023634;28;20425;-64
2022/03/05 07:38:47;;;;;;;32.58;10.80;;;0.80;99.90;;;;;;5023378;28;20033;-64
2022/03/05 07:41:13;;;;;;;28.30;10.18;;;1.10;99.90;;;;;;5021067;28;20448;-64
2022/03/05 07:43:39;;;;;;;31.67;10.43;;;1.20;99.90;;;;;;5027265;28;20048;-64
2022/03/05 07:46:06;;;;;;;32.88;11.65;;;1.30;99.90;;;;;;5024833;28;20041;-64
2022/03/05 07:48:31;;;;;;;31.77;10.55;;;1.40;99.90;;;;;;5020713;28;20036;-64
2022/03/05 07:50:59;;;;;;;29.77;10.25;;;1.90;99.90;;;;;;5037482;23;20049;-60
2022/03/05 07:53:27;;;;;;;28.63;9.73;;;2.10;99.90;;;;;;5024988;28;20042;-59
2022/03/05 07:55:53;;;;;;;32.25;10.10;;;2.30;99.90;;;;;;5020648;28;20041;-62
2022/03/05 07:58:18;;;;;;;33.65;9.65;;;2.30;99.90;;;;;;5017960;28;20493;-60
2022/03/05 08:00:44;;;;;;;34.58;10.73;;;2.40;99.90;;;;;;5022040;28;20068;-60
2022/03/05 08:03:09;;;;;;;28.30;9.70;;;2.40;99.90;;;;;;5020865;28;20037;-60
2022/03/05 08:05:35;;;;;;;35.97;10.07;;;2.40;99.90;;;;;;5021710;28;20033;-61
2022/03/05 08:08:01;;;;;;;33.55;11.90;;;2.40;99.90;;;;;;5020247;28;20516;-60
2022/03/05 08:10:26;;;;;;;31.00;10.18;;;2.60;99.90;;;;;;5017961;28;20029;-61
2022/03/05 08:12:52;;;;;;;28.35;9.57;;;2.60;99.90;;;;;;5018642;28;20524;-59
2022/03/05 08:15:18;;;;;;;30.75;10.35;;;2.70;99.90;;;;;;5020984;28;20512;-61
2022/03/05 08:17:54;;;;;;;28.40;9.90;;;2.70;99.90;;;;;;5018484;28;20054;-59
2022/03/05 08:20:20;;;;;;;32.08;9.65;;;2.70;99.90;;;;;;5022008;28;20034;-59
2022/03/05 08:22:46;;;;;;;33.15;10.68;;;2.70;99.90;;;;;;5018819;28;20409;-59
2022/03/05 08:25:12;;;;;;;32.22;11.38;;;2.80;99.90;;;;;;5021989;28;20029;-60
2022/03/05 08:27:38;;;;;;;28.88;9.27;;;2.80;99.90;;;;;;5032762;28;20121;-59
2022/03/05 08:30:04;;;;;;;32.25;10.85;;;2.90;99.90;;;;;;5019746;28;20144;-59
2022/03/05 08:32:30;;;;;;;28.38;10.05;;;3.00;99.90;;;;;;5019215;28;20057;-59
2022/03/05 08:34:55;;;;;;;28.35;9.60;;;2.90;99.90;;;;;;5020853;28;20156;-60
2022/03/05 08:37:21;;;;;;;38.53;10.43;;;3.00;99.90;;;;;;5016801;28;20037;-61
2022/03/05 08:39:47;;;;;;;32.55;10.80;;;3.10;99.90;;;;;;5019809;28;20030;-60
2022/03/05 08:42:12;;;;;;;38.65;10.88;;;3.20;99.90;;;;;;5018044;28;20150;-59
2022/03/05 08:44:38;;;;;;;33.75;11.80;;;3.30;99.90;;;;;;5033401;28;20084;-61
2022/03/05 08:47:04;;;;;;;31.55;11.80;;;3.40;99.90;;;;;;5019675;28;20026;-60
2022/03/05 08:49:29;;;;;;;30.67;11.45;;;3.50;99.90;;;;;;5019148;28;20393;-59
2022/03/05 08:51:55;;;;;;;32.88;10.57;;;3.60;99.90;;;;;;5018590;28;20053;-60
2022/03/05 08:54:21;;;;;;;30.35;10.52;;;3.70;99.90;;;;;;5019959;28;20041;-60
2022/03/05 08:56:48;;;;;;;28.15;11.23;;;3.70;99.90;;;;;;5016926;28;20033;-65
2022/03/05 08:59:13;;;;;;;36.65;11.27;;;3.70;99.90;;;;;;5025312;28;20044;-60
2022/03/05 09:01:39;;;;;;;28.02;9.15;;;3.80;99.90;;;;;;5025514;28;20034;-60
2022/03/05 09:04:05;;;;;;;32.47;11.07;;;3.80;99.90;;;;;;5019971;28;20097;-60
2022/03/05 09:06:31;;;;;;;28.52;10.43;;;3.80;99.90;;;;;;5018259;28;20041;-61
2022/03/05 09:08:59;;;;;;;28.85;11.13;;;3.90;99.90;;;;;;5018688;28;20033;-59
2022/03/05 09:11:25;;;;;;;36.13;11.35;;;3.90;99.90;;;;;;5019021;28;20034;-60
2022/03/05 09:13:51;;;;;;;35.45;10.80;;;3.90;99.90;;;;;;5016781;28;20048;-65
2022/03/05 09:16:17;;;;;;;28.40;10.05;;;3.90;99.90;;;;;;5017909;28;20116;-61
2022/03/05 09:18:42;;;;;;;28.92;9.35;;;4.00;99.90;;;;;;5017106;28;20045;-61
2022/03/05 09:21:08;;;;;;;34.25;10.52;;;4.10;99.90;;;;;;5018920;28;20087;-60
2022/03/05 09:23:34;;;;;;;30.20;10.55;;;4.10;99.90;;;;;;5018959;28;20066;-60
2022/03/05 09:25:59;;;;;;;34.40;11.52;;;4.20;99.90;;;;;;5022291;28;20026;-60
2022/03/05 09:28:26;;;;;;;31.27;10.68;;;4.30;99.90;;;;;;5019332;28;20443;-59
2022/03/05 09:30:51;;;;;;;33.70;11.88;;;4.30;99.90;;;;;;5018539;28;20033;-60
2022/03/05 09:33:19;;;;;;;32.45;12.18;;;4.40;99.90;;;;;;5015996;28;20092;-72
2022/03/05 09:35:45;;;;;;;29.15;11.05;;;4.50;99.90;;;;;;5015716;28;20113;-62
2022/03/05 09:38:10;;;;;;;30.80;10.93;;;4.60;99.90;;;;;;5021402;28;20108;-60
2022/03/05 09:40:36;;;;;;;31.98;11.38;;;4.80;99.90;;;;;;5019377;28;20473;-60
2022/03/05 09:43:03;;;;;;;29.77;10.25;;;4.90;99.90;;;;;;5018905;28;20030;-62
2022/03/05 09:45:29;;;;;;;30.65;11.65;;;5.10;99.90;;;;;;5018962;28;20041;-60
2022/03/05 09:47:56;;;;;;;32.67;11.43;;;5.20;99.90;;;;;;5019576;28;20030;-60
2022/03/05 09:50:28;;;;;;;28.65;11.23;;;5.30;99.90;;;;;;5050710;28;20034;-61
2022/03/05 09:52:55;;;;;;;29.95;11.55;;;5.20;99.90;;;;;;5018094;28;20042;-60
2022/03/05 09:55:20;;;;;;;32.17;10.20;;;5.30;99.90;;;;;;5016877;28;20034;-61
2022/03/05 09:57:46;;;;;;;31.40;10.45;;;5.30;99.90;;;;;;5021482;28;20034;-60
2022/03/05 10:00:12;;;;;;;35.13;10.57;;;5.40;99.90;;;;;;5020640;28;20061;-61
2022/03/05 10:02:38;;;;;;;28.63;11.20;;;5.30;99.90;;;;;;5021187;28;20040;-61
2022/03/05 10:05:27;;;;;;;34.35;11.15;;;5.30;99.90;;;;;;5017270;28;20026;-62
2022/03/05 10:08:10;;;;;;;31.48;9.75;;;5.30;99.90;;;;;;5021968;28;20556;-60
2022/03/05 10:10:50;;;;;;;40.50;12.13;;;5.40;99.90;;;;;;5020467;28;20443;-63
2022/03/05 10:13:20;;;;;;;35.88;10.55;;;5.50;99.90;;;;;;5024772;28;20063;-61
2022/03/05 10:15:46;;;;;;;28.45;10.25;;;5.50;99.90;;;;;;5024982;28;20120;-61
2022/03/05 10:18:12;;;;;;;31.33;10.82;;;5.60;99.90;;;;;;5024738;28;20100;-61
2022/03/05 10:20:50;;;;;;;29.75;10.68;;;5.60;99.90;;;;;;5025192;28;20477;-60
2022/03/05 10:23:18;;;;;;;29.40;11.20;;;5.70;99.90;;;;;;5025792;28;20037;-60
2022/03/05 10:25:52;;;;;;;32.22;10.07;;;5.70;99.90;;;;;;5026433;28;20053;-60
2022/03/05 10:28:24;;;;;;;28.42;10.13;;;5.80;99.90;;;;;;5022303;28;20053;-60
2022/03/05 10:30:50;;;;;;;28.58;9.75;;;5.90;99.90;;;;;;5023093;28;20125;-60
2022/03/05 10:33:41;;;;;;;33.40;11.25;;;5.90;99.90;;;;;;5020073;28;20064;-61
2022/03/05 10:36:10;;;;;;;30.75;10.65;;;5.90;99.90;;;;;;5024504;28;20018;-61
2022/03/05 10:39:05;;;;;;;28.98;11.27;;;6.00;99.90;;;;;;5024829;28;20044;-60
2022/03/05 10:41:37;;;;;;;29.63;10.80;;;5.90;99.90;;;;;;5023530;28;20100;-60
2022/03/05 10:44:05;;;;;;;30.98;11.70;;;6.00;99.90;;;;;;5024766;28;20072;-60
2022/03/05 10:46:57;;;;;;;32.92;10.10;;;6.00;99.90;;;;;;5023822;28;20477;-60
2022/03/05 10:49:28;;;;;;;31.48;10.93;;;6.10;99.90;;;;;;5024751;28;20025;-61
2022/03/05 10:51:59;;;;;;;34.92;11.98;;;6.10;99.90;;;;;;5022711;28;20084;-60
2022/03/05 10:54:38;;;;;;;32.85;10.98;;;6.20;99.90;;;;;;5021121;28;20467;-60
2022/03/05 10:57:18;;;;;;;36.30;12.15;;;6.20;99.90;;;;;;5023916;28;20036;-60
2022/03/05 10:59:52;;;;;;;32.20;11.17;;;6.20;99.90;;;;;;5028213;28;20040;-60
2022/03/05 11:02:20;;;;;;;33.20;11.50;;;6.20;99.90;;;;;;5023726;28;20541;-60
2022/03/05 11:04:47;;;;;;;29.02;10.38;;;6.20;99.90;;;;;;5022123;28;20029;-60
2022/03/05 11:07:17;;;;;;;30.05;11.10;;;6.30;99.90;;;;;;5021116;28;20034;-60
2022/03/05 11:09:44;;;;;;;30.48;12.07;;;6.40;99.90;;;;;;5023396;28;20029;-60
2022/03/05 11:12:16;;;;;;;29.33;11.20;;;6.40;99.90;;;;;;5020034;28;20068;-60
2022/03/05 11:14:49;;;;;;;28.42;10.82;;;6.40;99.90;;;;;;5023173;28;20045;-60
2022/03/05 11:17:16;;;;;;;33.42;11.35;;;6.40;99.90;;;;;;5021201;28;20038;-61
2022/03/05 11:19:41;;;;;;;28.45;11.32;;;6.40;99.90;;;;;;5023361;28;20032;-60
2022/03/05 11:22:08;;;;;;;27.02;10.20;;;6.50;99.90;;;;;;5019729;28;20042;-61
2022/03/05 11:24:38;;;;;;;27.60;10.00;;;6.50;99.90;;;;;;5024336;28;20080;-60
2022/03/05 11:27:04;;;;;;;29.30;9.83;;;6.60;99.90;;;;;;5022902;28;20034;-60
2022/03/05 11:29:55;;;;;;;30.13;10.82;;;6.70;99.90;;;;;;5022992;28;20036;-60
2022/03/05 11:32:21;;;;;;;25.92;10.10;;;6.70;99.90;;;;;;5053167;28;20496;-60
2022/03/05 11:34:49;;;;;;;27.23;9.85;;;6.70;99.90;;;;;;5022427;28;20053;-61
2022/03/05 11:37:22;;;;;;;31.77;10.18;;;6.80;99.90;;;;;;5020613;28;20029;-61
2022/03/05 11:39:48;;;;;;;33.92;11.65;;;6.80;99.90;;;;;;5021780;28;20053;-62
2022/03/05 11:42:35;;;;;;;29.08;11.75;;;6.80;99.90;;;;;;5022162;28;20068;-61
2022/03/05 11:45:25;;;;;;;32.17;11.52;;;6.90;99.90;;;;;;5024005;28;20034;-61
2022/03/05 11:47:51;;;;;;;30.92;9.48;;;7.00;99.90;;;;;;5023244;28;20033;-61
2022/03/05 11:50:17;;;;;;;32.17;11.20;;;7.00;99.90;;;;;;5020503;28;20450;-61
2022/03/05 11:52:43;;;;;;;32.92;10.90;;;7.10;99.90;;;;;;5019883;28;20100;-61
2022/03/05 11:55:11;;;;;;;26.63;9.73;;;7.20;99.90;;;;;;5034703;28;20501;-61
2022/03/05 11:57:38;;;;;;;31.13;10.35;;;7.20;99.90;;;;;;5022050;28;20088;-61
2022/03/05 12:00:05;;;;;;;30.02;10.57;;;7.30;99.90;;;;;;5021342;28;20121;-61
2022/03/05 12:02:40;;;;;;;29.52;10.38;;;7.20;99.90;;;;;;5021473;28;20541;-60
2022/03/05 12:05:06;;;;;;;27.35;10.95;;;7.30;99.90;;;;;;5026540;28;20791;-62
2022/03/05 12:07:40;;;;;;;31.58;10.52;;;7.30;99.90;;;;;;5028270;28;20028;-61
2022/03/05 12:10:13;;;;;;;31.38;11.18;;;7.30;99.90;;;;;;5027552;28;20029;-61
2022/03/05 12:12:53;;;;;;;28.40;10.25;;;7.30;99.90;;;;;;5027524;28;20037;-62
2022/03/05 12:15:32;;;;;;;30.15;9.57;;;7.30;99.90;;;;;;5026984;28;20122;-61
2022/03/05 12:17:58;;;;;;;31.40;11.65;;;7.30;99.90;;;;;;5028262;28;20511;-62
2022/03/05 12:20:27;;;;;;;30.33;12.15;;;7.30;99.90;;;;;;5027537;28;20033;-61
2022/03/05 12:22:58;;;;;;;29.75;10.68;;;7.40;99.90;;;;;;5026718;28;20442;-61
2022/03/05 12:25:25;;;;;;;27.88;10.23;;;7.50;99.90;;;;;;5027962;28;20044;-60
2022/03/05 12:27:52;;;;;;;36.13;11.63;;;7.60;99.90;;;;;;5027458;28;20104;-61
2022/03/05 12:30:23;;;;;;;32.88;11.80;;;7.70;99.90;;;;;;5028109;28;20068;-61
2022/03/05 12:32:51;;;;;;;;;;;7.70;99.90;;;;;;5028665;28;20053;-61
2022/03/05 12:35:17;;;;;;;31.55;11.55;;;7.80;99.90;;;;;;5021102;28;19913;-61
2022/03/05 12:37:44;;;;;;;34.20;11.18;;;7.80;99.90;;;;;;5017178;28;20501;-60
2022/03/05 12:40:11;;;;;;;27.52;10.35;;;7.80;99.90;;;;;;5018159;28;20628;-60
2022/03/05 12:42:38;;;;;;;27.00;10.38;;;7.90;99.90;;;;;;5021737;28;20051;-62
2022/03/05 12:45:05;;;;;;;31.83;11.25;;;7.90;99.90;;;;;;5017351;28;20041;-60